sensor_id;sensor_type;location;lat;lon;timestamp;P1;durP1;ratioP1;P2;durP2;ratioP2
19788;SDS011;10054;59.332;18.244;2022-07-18T00:02:14;0.60;;;0.60;;
19788;SDS011;10054;59.332;18.244;2022-07-18T00:04:44;0.63;;;0.63;;
19788;SDS011;10054;59.332;18.244;2022-07-18T00:07:13;0.60;;;0.60;;
19788;SDS011;10054;59.332;18.244;2022-07-18T00:09:42;0.80;;;0.80;;
19788;SDS011;10054;59.332;18.244;2022-07-18T00:12:11;0.60;;;0.60;;
19788;SDS011;10054;59.332;18.244;2022-07-18T00:14:41;0.70;;;0.70;;
19788;SDS011;10054;59.332;18.244;2022-07-18T00:17:10;0.70;;;0.70;;
19788;SDS011;10054;59.332;18.244;2022-07-18T00:19:39;0.70;;;0.70;;
19788;SDS011;10054;59.332;18.244;2022-07-18T00:22:08;0.63;;;0.60;;
19788;SDS011;10054;59.332;18.244;2022-07-18T00:24:37;0.70;;;0.70;;
19788;SDS011;10054;59.332;18.244;2022-07-18T00:27:06;0.83;;;0.83;;
19788;SDS011;10054;59.332;18.244;2022-07-18T00:29:36;0.70;;;0.70;;
19788;SDS011;10054;59.332;18.244;2022-07-18T00:32:06;0.90;;;0.90;;
19788;SDS011;10054;59.332;18.244;2022-07-18T00:34:36;1.30;;;1.00;;
19788;SDS011;10054;59.332;18.244;2022-07-18T00:37:05;1.37;;;1.13;;
19788;SDS011;10054;59.332;18.244;2022-07-18T00:39:34;1.30;;;1.20;;
19788;SDS011;10054;59.332;18.244;2022-07-18T00:42:03;3.47;;;1.70;;
19788;SDS011;10054;59.332;18.244;2022-07-18T00:44:32;3.83;;;2.10;;
19788;SDS011;10054;59.332;18.244;2022-07-18T00:47:02;4.07;;;2.90;;
19788;SDS011;10054;59.332;18.244;2022-07-18T00:49:32;4.87;;;3.50;;
19788;SDS011;10054;59.332;18.244;2022-07-18T00:52:00;6.03;;;3.67;;
19788;SDS011;10054;59.332;18.244;2022-07-18T00:54:29;5.10;;;3.80;;
19788;SDS011;10054;59.332;18.244;2022-07-18T00:56:59;6.43;;;4.23;;
19788;SDS011;10054;59.332;18.244;2022-07-18T00:59:28;5.47;;;4.10;;
19788;SDS011;10054;59.332;18.244;2022-07-18T01:02:15;4.97;;;4.00;;
19788;SDS011;10054;59.332;18.244;2022-07-18T01:04:43;7.23;;;3.87;;
19788;SDS011;10054;59.332;18.244;2022-07-18T01:07:12;5.30;;;3.80;;
19788;SDS011;10054;59.332;18.244;2022-07-18T01:09:41;4.77;;;4.00;;
19788;SDS011;10054;59.332;18.244;2022-07-18T01:12:10;5.70;;;4.00;;
19788;SDS011;10054;59.332;18.244;2022-07-18T01:14:39;6.80;;;4.30;;
19788;SDS011;10054;59.332;18.244;2022-07-18T01:17:14;5.83;;;4.37;;
19788;SDS011;10054;59.332;18.244;2022-07-18T01:19:45;8.33;;;3.90;;
19788;SDS011;10054;59.332;18.244;2022-07-18T01:22:15;6.23;;;4.07;;
19788;SDS011;10054;59.332;18.244;2022-07-18T01:24:46;6.17;;;4.00;;
19788;SDS011;10054;59.332;18.244;2022-07-18T01:27:16;5.80;;;4.37;;
19788;SDS011;10054;59.332;18.244;2022-07-18T01:29:46;6.90;;;4.20;;
19788;SDS011;10054;59.332;18.244;2022-07-18T01:32:16;5.90;;;4.53;;
19788;SDS011;10054;59.332;18.244;2022-07-18T01:34:46;6.57;;;4.30;;
19788;SDS011;10054;59.332;18.244;2022-07-18T01:37:16;5.23;;;4.10;;
19788;SDS011;10054;59.332;18.244;2022-07-18T01:39:46;8.93;;;4.20;;
19788;SDS011;10054;59.332;18.244;2022-07-18T01:42:15;4.80;;;3.90;;
19788;SDS011;10054;59.332;18.244;2022-07-18T01:44:44;5.17;;;3.37;;
19788;SDS011;10054;59.332;18.244;2022-07-18T01:47:13;4.80;;;3.50;;
19788;SDS011;10054;59.332;18.244;2022-07-18T01:49:42;3.67;;;2.60;;
19788;SDS011;10054;59.332;18.244;2022-07-18T01:52:11;2.80;;;2.50;;
19788;SDS011;10054;59.332;18.244;2022-07-18T01:54:40;3.47;;;2.43;;
19788;SDS011;10054;59.332;18.244;2022-07-18T01:57:09;3.37;;;2.30;;
19788;SDS011;10054;59.332;18.244;2022-07-18T01:59:38;2.20;;;2.00;;
19788;SDS011;10054;59.332;18.244;2022-07-18T02:02:07;2.40;;;2.20;;
19788;SDS011;10054;59.332;18.244;2022-07-18T02:04:36;2.63;;;2.00;;
19788;SDS011;10054;59.332;18.244;2022-07-18T02:07:23;2.20;;;1.97;;
19788;SDS011;10054;59.332;18.244;2022-07-18T02:09:51;1.50;;;1.40;;
19788;SDS011;10054;59.332;18.244;2022-07-18T02:12:20;2.03;;;1.60;;
19788;SDS011;10054;59.332;18.244;2022-07-18T02:14:49;1.50;;;1.40;;
19788;SDS011;10054;59.332;18.244;2022-07-18T02:17:18;2.10;;;1.30;;
19788;SDS011;10054;59.332;18.244;2022-07-18T02:19:47;1.53;;;1.30;;
19788;SDS011;10054;59.332;18.244;2022-07-18T02:22:16;1.60;;;1.30;;
19788;SDS011;10054;59.332;18.244;2022-07-18T02:24:45;1.63;;;1.40;;
19788;SDS011;10054;59.332;18.244;2022-07-18T02:27:14;2.03;;;1.30;;
19788;SDS011;10054;59.332;18.244;2022-07-18T02:29:43;1.20;;;1.10;;
19788;SDS011;10054;59.332;18.244;2022-07-18T02:32:12;1.10;;;1.10;;
19788;SDS011;10054;59.332;18.244;2022-07-18T02:34:41;1.00;;;1.00;;
19788;SDS011;10054;59.332;18.244;2022-07-18T02:37:10;1.00;;;1.00;;
19788;SDS011;10054;59.332;18.244;2022-07-18T02:39:38;1.00;;;1.00;;
19788;SDS011;10054;59.332;18.244;2022-07-18T02:42:07;1.00;;;1.00;;
19788;SDS011;10054;59.332;18.244;2022-07-18T02:44:36;2.17;;;1.20;;
19788;SDS011;10054;59.332;18.244;2022-07-18T02:47:05;1.30;;;1.20;;
19788;SDS011;10054;59.332;18.244;2022-07-18T02:49:34;1.30;;;1.20;;
19788;SDS011;10054;59.332;18.244;2022-07-18T02:52:06;1.23;;;1.20;;
19788;SDS011;10054;59.332;18.244;2022-07-18T02:54:36;1.30;;;1.20;;
19788;SDS011;10054;59.332;18.244;2022-07-18T02:57:06;1.40;;;1.30;;
19788;SDS011;10054;59.332;18.244;2022-07-18T02:59:35;3.17;;;1.30;;
19788;SDS011;10054;59.332;18.244;2022-07-18T03:02:04;3.50;;;1.40;;
19788;SDS011;10054;59.332;18.244;2022-07-18T03:04:33;2.43;;;1.40;;
19788;SDS011;10054;59.332;18.244;2022-07-18T03:07:01;2.80;;;1.30;;
19788;SDS011;10054;59.332;18.244;2022-07-18T03:09:30;1.33;;;1.20;;
19788;SDS011;10054;59.332;18.244;2022-07-18T03:11:59;1.27;;;1.17;;
19788;SDS011;10054;59.332;18.244;2022-07-18T03:14:28;1.60;;;1.50;;
19788;SDS011;10054;59.332;18.244;2022-07-18T03:16:57;2.33;;;1.50;;
19788;SDS011;10054;59.332;18.244;2022-07-18T03:19:26;1.70;;;1.30;;
19788;SDS011;10054;59.332;18.244;2022-07-18T03:21:55;1.50;;;1.40;;
19788;SDS011;10054;59.332;18.244;2022-07-18T03:24:24;2.50;;;1.33;;
19788;SDS011;10054;59.332;18.244;2022-07-18T03:26:53;1.40;;;1.30;;
19788;SDS011;10054;59.332;18.244;2022-07-18T03:29:22;1.73;;;1.30;;
19788;SDS011;10054;59.332;18.244;2022-07-18T03:31:51;1.20;;;1.10;;
19788;SDS011;10054;59.332;18.244;2022-07-18T03:34:21;2.20;;;1.30;;
19788;SDS011;10054;59.332;18.244;2022-07-18T03:36:50;1.40;;;1.30;;
19788;SDS011;10054;59.332;18.244;2022-07-18T03:39:18;1.40;;;1.10;;
19788;SDS011;10054;59.332;18.244;2022-07-18T03:41:47;2.03;;;1.17;;
19788;SDS011;10054;59.332;18.244;2022-07-18T03:44:17;2.93;;;1.10;;
19788;SDS011;10054;59.332;18.244;2022-07-18T03:46:46;1.20;;;1.10;;
19788;SDS011;10054;59.332;18.244;2022-07-18T03:49:15;1.60;;;1.07;;
19788;SDS011;10054;59.332;18.244;2022-07-18T03:51:44;1.27;;;1.17;;
19788;SDS011;10054;59.332;18.244;2022-07-18T03:54:13;1.07;;;1.00;;
19788;SDS011;10054;59.332;18.244;2022-07-18T03:56:42;1.15;;;1.10;;
19788;SDS011;10054;59.332;18.244;2022-07-18T03:59:11;1.40;;;1.20;;
19788;SDS011;10054;59.332;18.244;2022-07-18T04:01:39;1.00;;;1.00;;
19788;SDS011;10054;59.332;18.244;2022-07-18T04:04:09;1.25;;;1.10;;
19788;SDS011;10054;59.332;18.244;2022-07-18T04:06:38;1.20;;;1.10;;
19788;SDS011;10054;59.332;18.244;2022-07-18T04:09:07;1.47;;;1.10;;
19788;SDS011;10054;59.332;18.244;2022-07-18T04:11:36;2.50;;;1.12;;
19788;SDS011;10054;59.332;18.244;2022-07-18T04:14:05;1.67;;;1.00;;
19788;SDS011;10054;59.332;18.244;2022-07-18T04:16:33;1.65;;;1.17;;
19788;SDS011;10054;59.332;18.244;2022-07-18T04:19:02;1.32;;;1.20;;
19788;SDS011;10054;59.332;18.244;2022-07-18T04:21:30;1.07;;;0.98;;
19788;SDS011;10054;59.332;18.244;2022-07-18T04:23:59;0.90;;;0.90;;
19788;SDS011;10054;59.332;18.244;2022-07-18T04:26:29;1.00;;;1.00;;
19788;SDS011;10054;59.332;18.244;2022-07-18T04:28:58;1.20;;;1.10;;
19788;SDS011;10054;59.332;18.244;2022-07-18T04:31:26;1.32;;;1.20;;
19788;SDS011;10054;59.332;18.244;2022-07-18T04:33:55;1.17;;;1.05;;
19788;SDS011;10054;59.332;18.244;2022-07-18T04:36:24;1.57;;;1.17;;
19788;SDS011;10054;59.332;18.244;2022-07-18T04:38:53;2.65;;;1.40;;
19788;SDS011;10054;59.332;18.244;2022-07-18T04:41:22;1.40;;;1.15;;
19788;SDS011;10054;59.332;18.244;2022-07-18T04:43:52;2.00;;;1.20;;
19788;SDS011;10054;59.332;18.244;2022-07-18T04:46:21;1.70;;;1.37;;
19788;SDS011;10054;59.332;18.244;2022-07-18T04:48:50;2.25;;;1.40;;
19788;SDS011;10054;59.332;18.244;2022-07-18T04:51:18;2.08;;;1.10;;
19788;SDS011;10054;59.332;18.244;2022-07-18T04:53:47;1.42;;;1.15;;
19788;SDS011;10054;59.332;18.244;2022-07-18T04:56:16;1.37;;;1.20;;
19788;SDS011;10054;59.332;18.244;2022-07-18T04:58:45;1.35;;;1.27;;
19788;SDS011;10054;59.332;18.244;2022-07-18T05:01:14;1.50;;;1.20;;
19788;SDS011;10054;59.332;18.244;2022-07-18T05:03:42;2.00;;;1.47;;
19788;SDS011;10054;59.332;18.244;2022-07-18T05:06:11;4.65;;;1.40;;
19788;SDS011;10054;59.332;18.244;2022-07-18T05:08:40;3.55;;;1.37;;
19788;SDS011;10054;59.332;18.244;2022-07-18T05:11:09;2.05;;;1.65;;
19788;SDS011;10054;59.332;18.244;2022-07-18T05:13:38;3.10;;;1.40;;
19788;SDS011;10054;59.332;18.244;2022-07-18T05:16:12;3.20;;;1.67;;
19788;SDS011;10054;59.332;18.244;2022-07-18T05:18:37;1.47;;;1.37;;
19788;SDS011;10054;59.332;18.244;2022-07-18T05:21:06;1.50;;;1.40;;
19788;SDS011;10054;59.332;18.244;2022-07-18T05:23:35;1.92;;;1.32;;
19788;SDS011;10054;59.332;18.244;2022-07-18T05:26:04;2.27;;;1.42;;
19788;SDS011;10054;59.332;18.244;2022-07-18T05:28:33;4.08;;;1.77;;
19788;SDS011;10054;59.332;18.244;2022-07-18T05:31:01;2.15;;;1.37;;
19788;SDS011;10054;59.332;18.244;2022-07-18T05:33:30;2.65;;;1.60;;
19788;SDS011;10054;59.332;18.244;2022-07-18T05:35:59;4.75;;;1.82;;
19788;SDS011;10054;59.332;18.244;2022-07-18T05:38:28;2.95;;;1.62;;
19788;SDS011;10054;59.332;18.244;2022-07-18T05:40:57;2.42;;;1.60;;
19788;SDS011;10054;59.332;18.244;2022-07-18T05:43:26;3.05;;;1.77;;
19788;SDS011;10054;59.332;18.244;2022-07-18T05:45:55;2.35;;;1.62;;
19788;SDS011;10054;59.332;18.244;2022-07-18T05:48:23;5.25;;;1.85;;
19788;SDS011;10054;59.332;18.244;2022-07-18T05:50:52;1.98;;;1.50;;
19788;SDS011;10054;59.332;18.244;2022-07-18T05:53:21;2.37;;;1.62;;
19788;SDS011;10054;59.332;18.244;2022-07-18T05:55:49;2.27;;;1.65;;
19788;SDS011;10054;59.332;18.244;2022-07-18T05:58:18;3.98;;;1.77;;
19788;SDS011;10054;59.332;18.244;2022-07-18T06:00:47;2.10;;;1.80;;
19788;SDS011;10054;59.332;18.244;2022-07-18T06:03:16;2.72;;;1.50;;
19788;SDS011;10054;59.332;18.244;2022-07-18T06:05:45;2.77;;;1.60;;
19788;SDS011;10054;59.332;18.244;2022-07-18T06:08:14;5.47;;;2.05;;
19788;SDS011;10054;59.332;18.244;2022-07-18T06:10:44;4.47;;;1.82;;
19788;SDS011;10054;59.332;18.244;2022-07-18T06:13:12;3.52;;;2.05;;
19788;SDS011;10054;59.332;18.244;2022-07-18T06:15:42;3.08;;;2.00;;
19788;SDS011;10054;59.332;18.244;2022-07-18T06:18:10;3.55;;;2.17;;
19788;SDS011;10054;59.332;18.244;2022-07-18T06:20:39;2.52;;;2.08;;
19788;SDS011;10054;59.332;18.244;2022-07-18T06:23:08;4.00;;;1.85;;
19788;SDS011;10054;59.332;18.244;2022-07-18T06:25:37;3.30;;;1.87;;
19788;SDS011;10054;59.332;18.244;2022-07-18T06:28:06;3.70;;;2.05;;
19788;SDS011;10054;59.332;18.244;2022-07-18T06:30:36;4.30;;;2.22;;
19788;SDS011;10054;59.332;18.244;2022-07-18T06:33:05;3.85;;;2.20;;
19788;SDS011;10054;59.332;18.244;2022-07-18T06:35:34;5.45;;;2.22;;
19788;SDS011;10054;59.332;18.244;2022-07-18T06:38:03;5.42;;;2.20;;
19788;SDS011;10054;59.332;18.244;2022-07-18T06:40:32;3.52;;;2.22;;
19788;SDS011;10054;59.332;18.244;2022-07-18T06:43:01;4.12;;;2.30;;
19788;SDS011;10054;59.332;18.244;2022-07-18T06:45:30;4.90;;;2.67;;
19788;SDS011;10054;59.332;18.244;2022-07-18T06:47:58;6.25;;;2.47;;
19788;SDS011;10054;59.332;18.244;2022-07-18T06:50:27;3.98;;;2.25;;
19788;SDS011;10054;59.332;18.244;2022-07-18T06:52:56;3.90;;;2.08;;
19788;SDS011;10054;59.332;18.244;2022-07-18T06:55:25;2.37;;;2.10;;
19788;SDS011;10054;59.332;18.244;2022-07-18T06:57:54;4.30;;;2.17;;
19788;SDS011;10054;59.332;18.244;2022-07-18T07:00:23;4.80;;;2.30;;
19788;SDS011;10054;59.332;18.244;2022-07-18T07:02:52;3.83;;;2.35;;
19788;SDS011;10054;59.332;18.244;2022-07-18T07:05:22;4.62;;;2.30;;
19788;SDS011;10054;59.332;18.244;2022-07-18T07:07:50;3.40;;;2.37;;
19788;SDS011;10054;59.332;18.244;2022-07-18T07:10:19;4.58;;;2.50;;
19788;SDS011;10054;59.332;18.244;2022-07-18T07:12:49;5.10;;;2.45;;
19788;SDS011;10054;59.332;18.244;2022-07-18T07:15:19;5.25;;;2.50;;
19788;SDS011;10054;59.332;18.244;2022-07-18T07:17:49;3.33;;;2.25;;
19788;SDS011;10054;59.332;18.244;2022-07-18T07:20:19;5.62;;;2.40;;
19788;SDS011;10054;59.332;18.244;2022-07-18T07:22:56;6.08;;;3.00;;
19788;SDS011;10054;59.332;18.244;2022-07-18T07:25:26;4.55;;;2.42;;
19788;SDS011;10054;59.332;18.244;2022-07-18T07:27:55;5.90;;;2.25;;
19788;SDS011;10054;59.332;18.244;2022-07-18T07:30:24;4.53;;;2.45;;
19788;SDS011;10054;59.332;18.244;2022-07-18T07:32:53;4.87;;;2.55;;
19788;SDS011;10054;59.332;18.244;2022-07-18T07:35:23;5.92;;;2.77;;
19788;SDS011;10054;59.332;18.244;2022-07-18T07:37:53;3.90;;;2.80;;
19788;SDS011;10054;59.332;18.244;2022-07-18T07:40:24;4.47;;;2.30;;
19788;SDS011;10054;59.332;18.244;2022-07-18T07:45:45;4.03;;;2.62;;
19788;SDS011;10054;59.332;18.244;2022-07-18T07:48:15;6.17;;;3.27;;
19788;SDS011;10054;59.332;18.244;2022-07-18T07:50:44;3.80;;;2.33;;
19788;SDS011;10054;59.332;18.244;2022-07-18T07:53:13;5.25;;;2.75;;
19788;SDS011;10054;59.332;18.244;2022-07-18T07:55:42;9.10;;;3.35;;
19788;SDS011;10054;59.332;18.244;2022-07-18T07:58:11;4.80;;;2.87;;
19788;SDS011;10054;59.332;18.244;2022-07-18T08:00:40;5.92;;;2.80;;
19788;SDS011;10054;59.332;18.244;2022-07-18T08:03:09;2.70;;;2.10;;
19788;SDS011;10054;59.332;18.244;2022-07-18T08:05:38;5.17;;;2.70;;
19788;SDS011;10054;59.332;18.244;2022-07-18T08:08:15;3.25;;;2.22;;
19788;SDS011;10054;59.332;18.244;2022-07-18T08:10:44;5.87;;;2.30;;
19788;SDS011;10054;59.332;18.244;2022-07-18T08:13:14;4.40;;;2.30;;
19788;SDS011;10054;59.332;18.244;2022-07-18T08:15:43;4.08;;;2.60;;
19788;SDS011;10054;59.332;18.244;2022-07-18T08:18:12;3.90;;;2.62;;
19788;SDS011;10054;59.332;18.244;2022-07-18T08:20:41;6.85;;;2.80;;
19788;SDS011;10054;59.332;18.244;2022-07-18T08:23:10;4.85;;;2.70;;
19788;SDS011;10054;59.332;18.244;2022-07-18T08:25:39;7.15;;;2.72;;
19788;SDS011;10054;59.332;18.244;2022-07-18T08:28:09;4.25;;;2.60;;
19788;SDS011;10054;59.332;18.244;2022-07-18T08:30:38;4.83;;;2.55;;
19788;SDS011;10054;59.332;18.244;2022-07-18T08:33:07;3.27;;;2.30;;
19788;SDS011;10054;59.332;18.244;2022-07-18T08:35:36;3.70;;;2.37;;
19788;SDS011;10054;59.332;18.244;2022-07-18T08:38:05;6.03;;;2.45;;
19788;SDS011;10054;59.332;18.244;2022-07-18T08:40:34;4.53;;;2.33;;
19788;SDS011;10054;59.332;18.244;2022-07-18T08:43:05;4.05;;;2.60;;
19788;SDS011;10054;59.332;18.244;2022-07-18T08:45:34;4.15;;;2.55;;
19788;SDS011;10054;59.332;18.244;2022-07-18T08:48:03;3.70;;;2.60;;
19788;SDS011;10054;59.332;18.244;2022-07-18T08:50:32;3.72;;;2.30;;
19788;SDS011;10054;59.332;18.244;2022-07-18T08:53:02;3.42;;;2.37;;
19788;SDS011;10054;59.332;18.244;2022-07-18T08:55:32;4.05;;;2.10;;
19788;SDS011;10054;59.332;18.244;2022-07-18T08:58:00;4.20;;;2.40;;
19788;SDS011;10054;59.332;18.244;2022-07-18T09:00:29;4.67;;;2.40;;
19788;SDS011;10054;59.332;18.244;2022-07-18T09:03:00;4.10;;;2.30;;
19788;SDS011;10054;59.332;18.244;2022-07-18T09:05:31;4.55;;;2.40;;
19788;SDS011;10054;59.332;18.244;2022-07-18T09:08:16;5.40;;;2.27;;
19788;SDS011;10054;59.332;18.244;2022-07-18T09:10:52;5.33;;;2.47;;
19788;SDS011;10054;59.332;18.244;2022-07-18T09:13:24;3.70;;;2.55;;
19788;SDS011;10054;59.332;18.244;2022-07-18T09:18:30;3.65;;;2.22;;
19788;SDS011;10054;59.332;18.244;2022-07-18T09:21:05;4.58;;;2.27;;
19788;SDS011;10054;59.332;18.244;2022-07-18T09:23:37;3.95;;;1.98;;
19788;SDS011;10054;59.332;18.244;2022-07-18T09:26:07;5.85;;;2.37;;
19788;SDS011;10054;59.332;18.244;2022-07-18T09:28:50;5.25;;;2.47;;
19788;SDS011;10054;59.332;18.244;2022-07-18T09:31:21;3.22;;;2.37;;
19788;SDS011;10054;59.332;18.244;2022-07-18T09:33:58;3.85;;;2.17;;
19788;SDS011;10054;59.332;18.244;2022-07-18T09:36:23;7.60;;;2.70;;
19788;SDS011;10054;59.332;18.244;2022-07-18T09:38:53;3.72;;;2.40;;
19788;SDS011;10054;59.332;18.244;2022-07-18T09:41:23;4.42;;;2.27;;
19788;SDS011;10054;59.332;18.244;2022-07-18T09:43:59;3.87;;;2.30;;
19788;SDS011;10054;59.332;18.244;2022-07-18T09:46:31;3.50;;;2.35;;
19788;SDS011;10054;59.332;18.244;2022-07-18T09:49:09;3.00;;;2.20;;
19788;SDS011;10054;59.332;18.244;2022-07-18T09:51:38;4.20;;;2.40;;
19788;SDS011;10054;59.332;18.244;2022-07-18T09:54:09;5.05;;;2.52;;
19788;SDS011;10054;59.332;18.244;2022-07-18T09:56:38;3.70;;;2.50;;
19788;SDS011;10054;59.332;18.244;2022-07-18T09:59:09;3.55;;;2.20;;
19788;SDS011;10054;59.332;18.244;2022-07-18T10:01:39;4.20;;;2.40;;
19788;SDS011;10054;59.332;18.244;2022-07-18T10:04:08;4.30;;;2.50;;
19788;SDS011;10054;59.332;18.244;2022-07-18T10:06:37;3.27;;;2.08;;
19788;SDS011;10054;59.332;18.244;2022-07-18T10:09:08;2.30;;;1.90;;
19788;SDS011;10054;59.332;18.244;2022-07-18T10:11:38;3.95;;;2.22;;
19788;SDS011;10054;59.332;18.244;2022-07-18T10:14:08;3.37;;;2.10;;
19788;SDS011;10054;59.332;18.244;2022-07-18T10:16:37;5.78;;;2.55;;
19788;SDS011;10054;59.332;18.244;2022-07-18T10:19:06;3.02;;;2.25;;
19788;SDS011;10054;59.332;18.244;2022-07-18T10:21:37;4.60;;;2.30;;
19788;SDS011;10054;59.332;18.244;2022-07-18T10:24:10;4.25;;;2.08;;
19788;SDS011;10054;59.332;18.244;2022-07-18T10:26:39;2.10;;;1.95;;
19788;SDS011;10054;59.332;18.244;2022-07-18T10:29:09;2.25;;;1.98;;
19788;SDS011;10054;59.332;18.244;2022-07-18T10:31:40;4.78;;;2.10;;
19788;SDS011;10054;59.332;18.244;2022-07-18T10:34:11;2.22;;;2.00;;
19788;SDS011;10054;59.332;18.244;2022-07-18T10:36:41;2.55;;;2.00;;
19788;SDS011;10054;59.332;18.244;2022-07-18T10:39:15;3.65;;;1.85;;
19788;SDS011;10054;59.332;18.244;2022-07-18T10:57:36;2.22;;;2.00;;
19788;SDS011;10054;59.332;18.244;2022-07-18T11:00:13;2.70;;;1.90;;
19788;SDS011;10054;59.332;18.244;2022-07-18T11:02:44;2.67;;;1.82;;
19788;SDS011;10054;59.332;18.244;2022-07-18T11:16:06;3.77;;;1.85;;
19788;SDS011;10054;59.332;18.244;2022-07-18T11:21:20;2.75;;;1.67;;
19788;SDS011;10054;59.332;18.244;2022-07-18T11:23:52;2.50;;;1.70;;
19788;SDS011;10054;59.332;18.244;2022-07-18T11:26:29;1.90;;;1.60;;
19788;SDS011;10054;59.332;18.244;2022-07-18T11:29:04;2.80;;;1.77;;
19788;SDS011;10054;59.332;18.244;2022-07-18T11:34:23;3.55;;;1.70;;
19788;SDS011;10054;59.332;18.244;2022-07-18T11:36:52;2.30;;;1.70;;
19788;SDS011;10054;59.332;18.244;2022-07-18T11:39:30;2.35;;;1.90;;
19788;SDS011;10054;59.332;18.244;2022-07-18T11:42:00;3.00;;;1.60;;
19788;SDS011;10054;59.332;18.244;2022-07-18T11:44:30;1.80;;;1.32;;
19788;SDS011;10054;59.332;18.244;2022-07-18T11:47:06;1.98;;;1.60;;
19788;SDS011;10054;59.332;18.244;2022-07-18T11:49:37;2.20;;;1.67;;
19788;SDS011;10054;59.332;18.244;2022-07-18T11:52:07;2.08;;;1.80;;
19788;SDS011;10054;59.332;18.244;2022-07-18T11:54:36;1.72;;;1.60;;
19788;SDS011;10054;59.332;18.244;2022-07-18T11:57:04;1.72;;;1.50;;
19788;SDS011;10054;59.332;18.244;2022-07-18T11:59:37;1.90;;;1.65;;
19788;SDS011;10054;59.332;18.244;2022-07-18T12:02:08;2.42;;;1.67;;
19788;SDS011;10054;59.332;18.244;2022-07-18T12:04:38;1.77;;;1.60;;
19788;SDS011;10054;59.332;18.244;2022-07-18T12:07:18;1.95;;;1.50;;
19788;SDS011;10054;59.332;18.244;2022-07-18T12:09:49;1.67;;;1.57;;
19788;SDS011;10054;59.332;18.244;2022-07-18T12:12:20;1.75;;;1.55;;
19788;SDS011;10054;59.332;18.244;2022-07-18T12:14:58;1.60;;;1.50;;
19788;SDS011;10054;59.332;18.244;2022-07-18T12:17:30;1.65;;;1.52;;
19788;SDS011;10054;59.332;18.244;2022-07-18T12:20:18;2.05;;;1.70;;
19788;SDS011;10054;59.332;18.244;2022-07-18T12:23:08;1.80;;;1.70;;
19788;SDS011;10054;59.332;18.244;2022-07-18T12:25:41;5.08;;;1.98;;
19788;SDS011;10054;59.332;18.244;2022-07-18T12:28:15;2.02;;;1.80;;
19788;SDS011;10054;59.332;18.244;2022-07-18T12:30:45;9.68;;;2.75;;
19788;SDS011;10054;59.332;18.244;2022-07-18T12:33:14;4.80;;;1.95;;
19788;SDS011;10054;59.332;18.244;2022-07-18T12:35:43;2.47;;;1.87;;
19788;SDS011;10054;59.332;18.244;2022-07-18T12:38:12;4.05;;;1.92;;
19788;SDS011;10054;59.332;18.244;2022-07-18T12:40:49;6.50;;;2.40;;
19788;SDS011;10054;59.332;18.244;2022-07-18T12:46:00;3.00;;;2.33;;
19788;SDS011;10054;59.332;18.244;2022-07-18T12:48:31;7.12;;;2.95;;
19788;SDS011;10054;59.332;18.244;2022-07-18T12:51:01;5.17;;;2.65;;
19788;SDS011;10054;59.332;18.244;2022-07-18T12:53:33;4.55;;;2.17;;
19788;SDS011;10054;59.332;18.244;2022-07-18T12:56:03;5.40;;;2.83;;
19788;SDS011;10054;59.332;18.244;2022-07-18T12:58:33;2.62;;;1.98;;
19788;SDS011;10054;59.332;18.244;2022-07-18T13:01:02;2.55;;;2.00;;
19788;SDS011;10054;59.332;18.244;2022-07-18T13:03:31;2.40;;;2.00;;
19788;SDS011;10054;59.332;18.244;2022-07-18T13:06:01;3.10;;;1.98;;
19788;SDS011;10054;59.332;18.244;2022-07-18T13:08:29;2.90;;;2.15;;
19788;SDS011;10054;59.332;18.244;2022-07-18T13:10:58;4.33;;;2.40;;
19788;SDS011;10054;59.332;18.244;2022-07-18T13:13:27;3.98;;;2.02;;
19788;SDS011;10054;59.332;18.244;2022-07-18T13:15:56;2.27;;;1.95;;
19788;SDS011;10054;59.332;18.244;2022-07-18T13:18:25;3.40;;;1.90;;
19788;SDS011;10054;59.332;18.244;2022-07-18T13:20:54;3.58;;;2.15;;
19788;SDS011;10054;59.332;18.244;2022-07-18T13:23:23;2.47;;;1.92;;
19788;SDS011;10054;59.332;18.244;2022-07-18T13:25:52;2.08;;;1.70;;
19788;SDS011;10054;59.332;18.244;2022-07-18T13:28:21;6.83;;;2.00;;
19788;SDS011;10054;59.332;18.244;2022-07-18T13:30:50;2.10;;;1.90;;
19788;SDS011;10054;59.332;18.244;2022-07-18T13:33:18;2.05;;;1.82;;
19788;SDS011;10054;59.332;18.244;2022-07-18T13:35:47;4.83;;;1.95;;
19788;SDS011;10054;59.332;18.244;2022-07-18T13:38:16;2.15;;;1.95;;
19788;SDS011;10054;59.332;18.244;2022-07-18T13:40:45;1.95;;;1.80;;
19788;SDS011;10054;59.332;18.244;2022-07-18T13:43:14;2.00;;;1.87;;
19788;SDS011;10054;59.332;18.244;2022-07-18T13:45:42;2.12;;;1.92;;
19788;SDS011;10054;59.332;18.244;2022-07-18T13:48:11;2.85;;;2.10;;
19788;SDS011;10054;59.332;18.244;2022-07-18T13:50:40;2.22;;;1.77;;
19788;SDS011;10054;59.332;18.244;2022-07-18T13:53:09;2.35;;;2.10;;
19788;SDS011;10054;59.332;18.244;2022-07-18T13:55:38;3.10;;;2.35;;
19788;SDS011;10054;59.332;18.244;2022-07-18T13:58:07;2.00;;;1.90;;
19788;SDS011;10054;59.332;18.244;2022-07-18T14:00:36;3.17;;;2.20;;
19788;SDS011;10054;59.332;18.244;2022-07-18T14:03:04;2.33;;;2.12;;
19788;SDS011;10054;59.332;18.244;2022-07-18T14:05:34;2.27;;;2.08;;
19788;SDS011;10054;59.332;18.244;2022-07-18T14:08:04;2.55;;;1.98;;
19788;SDS011;10054;59.332;18.244;2022-07-18T14:10:33;3.22;;;2.20;;
19788;SDS011;10054;59.332;18.244;2022-07-18T14:13:04;2.33;;;1.95;;
19788;SDS011;10054;59.332;18.244;2022-07-18T14:15:33;2.60;;;2.10;;
19788;SDS011;10054;59.332;18.244;2022-07-18T14:18:01;3.08;;;2.08;;
19788;SDS011;10054;59.332;18.244;2022-07-18T14:20:32;2.40;;;2.20;;
19788;SDS011;10054;59.332;18.244;2022-07-18T14:23:01;2.40;;;1.92;;
19788;SDS011;10054;59.332;18.244;2022-07-18T14:25:30;2.20;;;2.00;;
19788;SDS011;10054;59.332;18.244;2022-07-18T14:27:59;2.17;;;2.08;;
19788;SDS011;10054;59.332;18.244;2022-07-18T14:30:28;2.60;;;2.30;;
19788;SDS011;10054;59.332;18.244;2022-07-18T14:32:57;3.22;;;2.45;;
19788;SDS011;10054;59.332;18.244;2022-07-18T14:35:26;2.77;;;2.40;;
19788;SDS011;10054;59.332;18.244;2022-07-18T14:37:55;3.52;;;2.60;;
19788;SDS011;10054;59.332;18.244;2022-07-18T14:40:23;2.50;;;2.30;;
19788;SDS011;10054;59.332;18.244;2022-07-18T14:42:53;3.30;;;1.85;;
19788;SDS011;10054;59.332;18.244;2022-07-18T14:45:22;2.37;;;2.10;;
19788;SDS011;10054;59.332;18.244;2022-07-18T14:47:50;1.70;;;1.60;;
19788;SDS011;10054;59.332;18.244;2022-07-18T14:50:19;2.05;;;1.80;;
19788;SDS011;10054;59.332;18.244;2022-07-18T14:52:48;1.55;;;1.45;;
19788;SDS011;10054;59.332;18.244;2022-07-18T14:55:17;1.32;;;1.30;;
19788;SDS011;10054;59.332;18.244;2022-07-18T14:57:46;2.77;;;1.47;;
19788;SDS011;10054;59.332;18.244;2022-07-18T15:00:35;2.12;;;1.50;;
19788;SDS011;10054;59.332;18.244;2022-07-18T15:03:04;1.55;;;1.45;;
19788;SDS011;10054;59.332;18.244;2022-07-18T15:05:33;1.50;;;1.40;;
19788;SDS011;10054;59.332;18.244;2022-07-18T15:08:02;1.55;;;1.45;;
19788;SDS011;10054;59.332;18.244;2022-07-18T15:10:31;1.70;;;1.60;;
19788;SDS011;10054;59.332;18.244;2022-07-18T15:13:00;1.70;;;1.60;;
19788;SDS011;10054;59.332;18.244;2022-07-18T15:15:28;1.50;;;1.40;;
19788;SDS011;10054;59.332;18.244;2022-07-18T15:17:58;2.10;;;1.32;;
19788;SDS011;10054;59.332;18.244;2022-07-18T15:20:27;1.60;;;1.50;;
19788;SDS011;10054;59.332;18.244;2022-07-18T15:22:56;1.70;;;1.60;;
19788;SDS011;10054;59.332;18.244;2022-07-18T15:25:25;3.05;;;1.60;;
19788;SDS011;10054;59.332;18.244;2022-07-18T15:27:54;1.57;;;1.47;;
19788;SDS011;10054;59.332;18.244;2022-07-18T15:30:22;1.82;;;1.50;;